createdAt,value
2019-04-20T00:01:32.017Z,100950
2019-04-20T00:03:34.675Z,100950
2019-04-20T00:05:27.511Z,100950
2019-04-20T00:07:30.995Z,100950
2019-04-20T00:09:31.308Z,100950
2019-04-20T00:11:36.416Z,100950
2019-04-20T00:13:38.392Z,100950
2019-04-20T00:15:26.034Z,100950
2019-04-20T00:17:26.422Z,100940
2019-04-20T00:19:32.249Z,100940
2019-04-20T00:21:24.812Z,100940
2019-04-20T00:23:30.662Z,100940
2019-04-20T00:25:38.645Z,100940
2019-04-20T00:27:43.306Z,100940
2019-04-20T00:29:39.380Z,100930
2019-04-20T00:31:40.299Z,100940
2019-04-20T00:33:41.020Z,100940
2019-04-20T00:35:23.101Z,100930
2019-04-20T00:37:23.377Z,100930
2019-04-20T00:39:23.675Z,100930
2019-04-20T00:41:23.070Z,100930
2019-04-20T00:43:30.133Z,100930
2019-04-20T00:45:27.400Z,100930
2019-04-20T00:47:34.618Z,100930
2019-04-20T00:49:34.873Z,100930
2019-04-20T00:51:34.856Z,100930
2019-04-20T00:53:30.422Z,100930
2019-04-20T00:57:34.150Z,100930
2019-04-20T00:59:31.751Z,100930
2019-04-20T01:01:46.205Z,100930
2019-04-20T01:03:33.830Z,100930
2019-04-20T01:05:38.639Z,100930
2019-04-20T01:07:30.800Z,100930
2019-04-20T01:09:18.587Z,100920
2019-04-20T01:11:27.046Z,100920
2019-04-20T01:13:22.866Z,100930
2019-04-20T01:15:30.160Z,100920
2019-04-20T01:17:17.441Z,100920
2019-04-20T01:19:19.231Z,100920
2019-04-20T01:21:21.585Z,100920
2019-04-20T01:23:20.715Z,100920
2019-04-20T01:25:24.806Z,100910
2019-04-20T01:27:29.562Z,100910
2019-04-20T01:29:26.359Z,100910
2019-04-20T01:33:30.418Z,100910
2019-04-20T01:35:32.014Z,100900
2019-04-20T01:37:30.293Z,100900
2019-04-20T01:39:25.393Z,100900
2019-04-20T01:41:14.241Z,100890
2019-04-20T01:43:14.278Z,100900
2019-04-20T01:45:21.654Z,100890
2019-04-20T01:47:14.952Z,100890
2019-04-20T01:49:18.222Z,100900
2019-04-20T01:51:19.694Z,100890
2019-04-20T01:53:23.718Z,100890
2019-04-20T01:55:33.687Z,100890
2019-04-20T01:57:19.970Z,100890
2019-04-20T01:59:26.661Z,100890
2019-04-20T02:01:19.217Z,100890
2019-04-20T02:03:12.996Z,100880
2019-04-20T02:05:19.269Z,100880
2019-04-20T02:07:12.027Z,100880
2019-04-20T02:09:17.272Z,100880
2019-04-20T02:11:18.660Z,100880
2019-04-20T02:13:11.209Z,100880
2019-04-20T02:17:22.710Z,100870
2019-04-20T02:19:26.616Z,100870
2019-04-20T02:21:25.928Z,100870
2019-04-20T02:23:23.756Z,100870
2019-04-20T02:25:10.389Z,100870
2019-04-20T02:27:08.286Z,100860
2019-04-20T02:29:32.643Z,100860
2019-04-20T02:32:01.480Z,100860
2019-04-20T02:33:42.454Z,100860
2019-04-20T02:35:46.230Z,100860
2019-04-20T02:37:51.353Z,100860
2019-04-20T02:39:51.336Z,100860
2019-04-20T02:43:48.385Z,100860
2019-04-20T02:45:40.369Z,100860
2019-04-20T02:47:54.869Z,100860
2019-04-20T02:51:43.254Z,100860
2019-04-20T02:53:41.570Z,100860
2019-04-20T02:55:40.182Z,100870
2019-04-20T02:57:43.728Z,100860
2019-04-20T03:01:36.484Z,100860
2019-04-20T03:03:17.254Z,100860
2019-04-20T03:05:16.435Z,100860
2019-04-20T03:07:15.615Z,100860
2019-04-20T03:09:29.687Z,100860
2019-04-20T03:11:37.487Z,100860
2019-04-20T03:13:25.335Z,100860
2019-04-20T03:15:31.396Z,100860
2019-04-20T03:17:30.039Z,100860
2019-04-20T03:19:17.094Z,100860
2019-04-20T03:21:30.125Z,100860
2019-04-20T03:25:22.614Z,100860
2019-04-20T03:27:20.919Z,100860
2019-04-20T03:29:12.827Z,100860
2019-04-20T03:33:31.032Z,100860
2019-04-20T03:35:28.686Z,100860
2019-04-20T03:37:26.684Z,100860
2019-04-20T03:39:19.071Z,100850
2019-04-20T03:41:09.582Z,100850
2019-04-20T03:42:59.122Z,100850
2019-04-20T03:45:05.322Z,100850
2019-04-20T03:47:02.807Z,100850
2019-04-20T03:49:14.612Z,100850
2019-04-20T03:51:26.559Z,100850
2019-04-20T03:53:20.961Z,100850
2019-04-20T03:55:16.113Z,100850
2019-04-20T03:57:23.105Z,100850
2019-04-20T04:01:22.718Z,100850
2019-04-20T04:03:26.961Z,100840
2019-04-20T04:05:13.518Z,100850
2019-04-20T04:06:59.552Z,100850
2019-04-20T04:09:07.360Z,100850
2019-04-20T04:11:18.892Z,100850
2019-04-20T04:13:09.564Z,100850
2019-04-20T04:14:55.684Z,100850
2019-04-20T04:16:57.917Z,100840
2019-04-20T04:19:07.542Z,100850
2019-04-20T04:21:01.099Z,100850
2019-04-20T04:23:10.281Z,100850
2019-04-20T04:25:10.182Z,100840
2019-04-20T04:27:05.709Z,100840
2019-04-20T04:29:19.176Z,100840
2019-04-20T04:31:12.029Z,100840
2019-04-20T04:33:44.550Z,100830
2019-04-20T04:35:05.526Z,100830
2019-04-20T04:37:10.658Z,100830
2019-04-20T04:39:17.778Z,100830
2019-04-20T04:41:20.202Z,100820
2019-04-20T04:43:10.174Z,100820
2019-04-20T04:44:59.697Z,100820
2019-04-20T04:46:57.606Z,100820
2019-04-20T04:48:53.304Z,100820
2019-04-20T04:50:57.397Z,100810
2019-04-20T04:53:01.001Z,100810
2019-04-20T04:54:57.480Z,100810
2019-04-20T04:56:50.420Z,100810
2019-04-20T04:58:50.062Z,100810
2019-04-20T05:00:51.424Z,100810
2019-04-20T05:02:53.843Z,100810
2019-04-20T05:05:10.381Z,100810
2019-04-20T05:07:05.034Z,100810
2019-04-20T05:08:54.993Z,100810
2019-04-20T05:10:49.895Z,100810
2019-04-20T05:12:50.172Z,100800
2019-04-20T05:15:02.283Z,100800
2019-04-20T05:17:01.769Z,100800
2019-04-20T05:21:13.009Z,100800
2019-04-20T05:23:06.078Z,100790
2019-04-20T05:25:05.738Z,100790
2019-04-20T05:27:09.233Z,100790
2019-04-20T05:28:55.633Z,100790
2019-04-20T05:30:53.794Z,100790
2019-04-20T05:37:17.577Z,100790
2019-04-20T05:39:19.185Z,100790
2019-04-20T05:41:04.211Z,100790
2019-04-20T05:43:07.858Z,100790
2019-04-20T05:45:01.853Z,100790
2019-04-20T05:47:06.964Z,100790
2019-04-20T05:49:13.414Z,100790
2019-04-20T05:53:09.448Z,100790
2019-04-20T05:57:07.847Z,100790
2019-04-20T05:59:09.767Z,100790
2019-04-20T06:01:10.863Z,100790
2019-04-20T06:03:04.119Z,100780
2019-04-20T06:05:11.336Z,100780
2019-04-20T06:07:11.262Z,100780
2019-04-20T06:09:12.258Z,100780
2019-04-20T06:11:02.366Z,100780
2019-04-20T06:13:00.248Z,100780
2019-04-20T06:15:00.381Z,100770
2019-04-20T06:17:04.763Z,100770
2019-04-20T06:19:18.159Z,100780
2019-04-20T06:21:16.136Z,100770
2019-04-20T06:23:15.898Z,100780
2019-04-20T06:25:19.648Z,100780
2019-04-20T06:27:03.448Z,100770
2019-04-20T06:28:57.176Z,100770
2019-04-20T06:30:56.900Z,100780
2019-04-20T06:37:02.926Z,100780
2019-04-20T06:39:14.141Z,100780
2019-04-20T06:41:17.357Z,100770
2019-04-20T06:43:09.053Z,100780
2019-04-20T06:45:05.714Z,100770
2019-04-20T06:50:57.209Z,100770
2019-04-20T06:53:07.687Z,100770
2019-04-20T06:54:57.734Z,100760
2019-04-20T06:57:02.862Z,100760
2019-04-20T06:59:06.930Z,100760
2019-04-20T07:01:03.787Z,100760
2019-04-20T07:03:01.817Z,100760
2019-04-20T07:04:59.732Z,100760
2019-04-20T07:07:05.355Z,100750
2019-04-20T07:09:06.600Z,100760
2019-04-20T07:11:04.348Z,100760
2019-04-20T07:12:58.027Z,100750
2019-04-20T07:14:50.985Z,100750
2019-04-20T07:17:00.886Z,100750
2019-04-20T07:19:01.106Z,100750
2019-04-20T07:21:04.251Z,100750
2019-04-20T07:23:11.959Z,100750
2019-04-20T07:25:13.982Z,100740
2019-04-20T07:27:00.752Z,100740
2019-04-20T07:28:58.852Z,100750
2019-04-20T07:32:58.302Z,100740
2019-04-20T07:35:03.345Z,100740
2019-04-20T07:37:09.901Z,100740
2019-04-20T07:39:00.697Z,100740
2019-04-20T07:41:00.011Z,100740
2019-04-20T07:43:07.970Z,100740
2019-04-20T07:45:01.233Z,100740
2019-04-20T07:49:01.399Z,100740
2019-04-20T07:50:50.491Z,100740
2019-04-20T07:52:48.588Z,100740
2019-04-20T07:55:22.193Z,100740
2019-04-20T07:56:53.740Z,100740
2019-04-20T07:58:46.050Z,100740
2019-04-20T08:01:05.856Z,100740
2019-04-20T08:03:03.072Z,100740
2019-04-20T08:04:55.064Z,100740
2019-04-20T08:06:43.336Z,100740
2019-04-20T08:08:56.095Z,100730
2019-04-20T08:10:53.813Z,100730
2019-04-20T08:13:07.982Z,100730
2019-04-20T08:15:05.131Z,100730
2019-04-20T08:17:14.074Z,100730
2019-04-20T08:18:55.465Z,100730
2019-04-20T08:20:58.495Z,100730
2019-04-20T08:22:58.667Z,100730
2019-04-20T08:24:52.370Z,100730
2019-04-20T08:26:45.378Z,100730
2019-04-20T08:28:46.521Z,100730
2019-04-20T08:30:55.749Z,100730
2019-04-20T08:32:51.874Z,100730
2019-04-20T08:35:00.730Z,100730
2019-04-20T08:36:58.474Z,100730
2019-04-20T08:39:30.785Z,100730
2019-04-20T08:43:02.444Z,100730
2019-04-20T08:47:05.139Z,100730
2019-04-20T08:48:58.132Z,100720
2019-04-20T08:53:09.987Z,100730
2019-04-20T08:54:57.792Z,100740
2019-04-20T08:56:43.464Z,100720
2019-04-20T08:58:36.215Z,100730
2019-04-20T09:00:45.701Z,100730
2019-04-20T09:02:41.332Z,100740
2019-04-20T09:04:45.001Z,100730
2019-04-20T09:08:46.668Z,100720
2019-04-20T09:10:53.968Z,100730
2019-04-20T09:12:50.661Z,100730
2019-04-20T09:14:37.897Z,100720
2019-04-20T09:18:44.338Z,100740
2019-04-20T09:20:43.513Z,100730
2019-04-20T09:25:01.739Z,100730
2019-04-20T09:28:39.605Z,100730
2019-04-20T09:30:42.837Z,100720
2019-04-20T09:32:49.434Z,100720
2019-04-20T09:34:55.798Z,100730
2019-04-20T09:36:46.791Z,100730
2019-04-20T09:38:47.812Z,100730
2019-04-20T09:40:50.323Z,100730
2019-04-20T09:42:33.489Z,100730
2019-04-20T09:44:37.503Z,100730
2019-04-20T09:46:40.356Z,100730
2019-04-20T09:48:41.998Z,100720
2019-04-20T09:50:55.536Z,100730
2019-04-20T09:52:53.464Z,100730
2019-04-20T09:54:53.035Z,100740
2019-04-20T09:56:54.910Z,100740
2019-04-20T09:58:59.369Z,100740
2019-04-20T10:01:00.786Z,100740
2019-04-20T10:02:37.779Z,100730
2019-04-20T10:04:33.446Z,100740
2019-04-20T10:06:35.888Z,100740
2019-04-20T10:08:33.990Z,100740
2019-04-20T10:10:38.897Z,100730
2019-04-20T10:12:33.539Z,100730
2019-04-20T10:14:33.117Z,100730
2019-04-20T10:16:33.351Z,100740
2019-04-20T10:18:34.265Z,100750
2019-04-20T10:20:35.292Z,100740
2019-04-20T10:24:32.767Z,100740
2019-04-20T10:26:32.387Z,100740
2019-04-20T10:28:31.886Z,100750
2019-04-20T10:30:34.621Z,100740
2019-04-20T10:32:37.735Z,100740
2019-04-20T10:36:31.380Z,100740
2019-04-20T10:38:34.191Z,100740
2019-04-20T10:40:44.955Z,100730
2019-04-20T10:42:32.201Z,100730
2019-04-20T10:44:32.529Z,100730
2019-04-20T10:46:31.192Z,100740
2019-04-20T10:48:37.507Z,100730
2019-04-20T10:50:31.237Z,100740
2019-04-20T10:54:32.246Z,100730
2019-04-20T10:56:31.727Z,100730
2019-04-20T10:58:33.654Z,100730
2019-04-20T11:00:43.816Z,100730
2019-04-20T11:02:31.886Z,100730
2019-04-20T11:04:30.688Z,100730
2019-04-20T11:06:32.283Z,100730
2019-04-20T11:08:32.888Z,100740
2019-04-20T11:10:46.786Z,100740
2019-04-20T11:12:30.719Z,100740
2019-04-20T11:14:34.563Z,100750
2019-04-20T11:18:31.405Z,100750
2019-04-20T11:20:31.611Z,100750
2019-04-20T11:22:30.613Z,100750
2019-04-20T11:24:30.349Z,100750
2019-04-20T11:26:32.171Z,100750
2019-04-20T11:28:30.339Z,100750
2019-04-20T11:30:30.418Z,100750
2019-04-20T11:32:30.388Z,100750
2019-04-20T11:34:34.040Z,100750
2019-04-20T11:36:30.986Z,100750
2019-04-20T11:38:30.230Z,100740
2019-04-20T11:40:30.845Z,100740
2019-04-20T11:42:29.956Z,100740
2019-04-20T11:44:31.604Z,100740
2019-04-20T11:46:30.441Z,100740
2019-04-20T11:48:29.704Z,100740
2019-04-20T11:50:29.730Z,100740
2019-04-20T11:54:30.446Z,100740
2019-04-20T11:56:34.841Z,100750
2019-04-20T11:58:30.357Z,100750
2019-04-20T12:00:46.978Z,100750
2019-04-20T12:02:34.864Z,100750
2019-04-20T12:04:40.432Z,100750
2019-04-20T12:06:30.820Z,100750
2019-04-20T12:08:32.172Z,100750
2019-04-20T12:10:30.084Z,100750
2019-04-20T12:12:38.022Z,100750
2019-04-20T12:14:30.478Z,100750
2019-04-20T12:16:29.724Z,100750
2019-04-20T12:18:29.516Z,100750
2019-04-20T12:20:29.063Z,100750
2019-04-20T12:22:28.474Z,100750
2019-04-20T12:24:29.132Z,100750
2019-04-20T12:26:29.046Z,100750
2019-04-20T12:28:29.487Z,100750
2019-04-20T12:32:35.219Z,100740
2019-04-20T12:34:28.698Z,100740
2019-04-20T12:36:28.130Z,100750
2019-04-20T12:38:28.499Z,100750
2019-04-20T12:40:28.103Z,100750
2019-04-20T12:42:30.947Z,100750
2019-04-20T12:44:28.026Z,100750
2019-04-20T12:46:28.093Z,100750
2019-04-20T12:48:29.295Z,100750
2019-04-20T12:50:28.076Z,100750
2019-04-20T12:52:28.267Z,100750
2019-04-20T12:54:27.058Z,100750
2019-04-20T12:56:26.960Z,100750
2019-04-20T12:58:26.794Z,100750
2019-04-20T13:00:43.602Z,100750
2019-04-20T13:02:27.291Z,100750
2019-04-20T13:04:26.890Z,100750
2019-04-20T13:06:27.986Z,100750
2019-04-20T13:08:33.964Z,100750
2019-04-20T13:10:27.474Z,100750
2019-04-20T13:12:29.121Z,100750
2019-04-20T13:16:26.342Z,100750
2019-04-20T13:18:27.399Z,100750
2019-04-20T13:20:25.879Z,100750
2019-04-20T13:22:25.651Z,100760
2019-04-20T13:24:25.566Z,100750
2019-04-20T13:26:26.893Z,100750
2019-04-20T13:28:26.243Z,100750
2019-04-20T13:30:27.984Z,100750
2019-04-20T13:32:25.701Z,100750
2019-04-20T13:34:24.885Z,100750
2019-04-20T13:36:26.168Z,100750
2019-04-20T13:38:25.809Z,100750
2019-04-20T13:40:25.982Z,100750
2019-04-20T13:42:28.536Z,100750
2019-04-20T13:44:24.403Z,100750
2019-04-20T13:46:24.947Z,100750
2019-04-20T13:48:24.918Z,100750
2019-04-20T13:50:24.185Z,100750
2019-04-20T13:54:26.638Z,100750
2019-04-20T13:58:23.712Z,100740
2019-04-20T14:00:32.648Z,100750
2019-04-20T14:02:26.718Z,100750
2019-04-20T14:04:26.578Z,100750
2019-04-20T14:10:23.728Z,100740
2019-04-20T14:12:29.964Z,100750
2019-04-20T14:14:23.481Z,100740
2019-04-20T14:16:23.257Z,100750
2019-04-20T14:18:22.894Z,100750
2019-04-20T14:20:24.305Z,100750
2019-04-20T14:22:22.961Z,100750
2019-04-20T14:24:22.353Z,100750
2019-04-20T14:26:22.996Z,100750
2019-04-20T14:28:23.082Z,100750
2019-04-20T14:30:22.362Z,100750
2019-04-20T14:32:22.875Z,100750
2019-04-20T14:34:22.715Z,100740
2019-04-20T14:36:24.133Z,100750
2019-04-20T14:38:22.256Z,100750
2019-04-20T14:40:22.118Z,100750
2019-04-20T14:42:30.654Z,100750
2019-04-20T14:44:22.075Z,100750
2019-04-20T14:46:21.175Z,100750
2019-04-20T14:48:21.015Z,100750
2019-04-20T14:50:23.458Z,100740
2019-04-20T14:52:21.775Z,100750
2019-04-20T14:54:21.365Z,100750
2019-04-20T14:56:20.785Z,100740
2019-04-20T14:58:21.685Z,100750
2019-04-20T15:00:37.504Z,100740
2019-04-20T15:02:21.703Z,100740
2019-04-20T15:04:23.314Z,100740
2019-04-20T15:06:21.277Z,100740
2019-04-20T15:08:20.629Z,100740
2019-04-20T15:10:20.611Z,100740
2019-04-20T15:12:21.244Z,100740
2019-04-20T15:14:20.752Z,100740
2019-04-20T15:16:20.333Z,100740
2019-04-20T15:18:19.799Z,100740
2019-04-20T15:22:19.513Z,100750
2019-04-20T15:24:19.720Z,100740
2019-04-20T15:26:20.429Z,100740
2019-04-20T15:30:20.573Z,100740
2019-04-20T15:32:19.156Z,100730
2019-04-20T15:34:19.277Z,100730
2019-04-20T15:36:20.137Z,100730
2019-04-20T15:38:18.781Z,100730
2019-04-20T15:40:19.351Z,100720
2019-04-20T15:42:19.674Z,100730
2019-04-20T15:44:19.470Z,100720
2019-04-20T15:46:19.395Z,100730
2019-04-20T15:48:19.905Z,100720
2019-04-20T15:50:18.268Z,100720
2019-04-20T15:54:19.654Z,100730
2019-04-20T15:56:18.637Z,100730
2019-04-20T15:58:18.492Z,100730
2019-04-20T16:00:18.455Z,100730
2019-04-20T16:02:17.741Z,100730
2019-04-20T16:04:24.966Z,100730
2019-04-20T16:06:17.156Z,100730
2019-04-20T16:08:16.719Z,100730
2019-04-20T16:10:17.274Z,100730
2019-04-20T16:12:17.259Z,100730
2019-04-20T16:14:17.483Z,100740
2019-04-20T16:16:16.394Z,100740
2019-04-20T16:18:16.736Z,100740
2019-04-20T16:20:20.071Z,100740
2019-04-20T16:22:15.775Z,100750
2019-04-20T16:24:16.895Z,100750
2019-04-20T16:26:15.581Z,100760
2019-04-20T16:28:15.505Z,100760
2019-04-20T16:30:15.827Z,100760
2019-04-20T16:32:16.507Z,100750
2019-04-20T16:34:15.979Z,100760
2019-04-20T16:36:14.845Z,100760
2019-04-20T16:38:16.119Z,100760
2019-04-20T16:40:15.615Z,100760
2019-04-20T16:42:14.343Z,100760
2019-04-20T16:44:15.650Z,100760
2019-04-20T16:46:18.135Z,100760
2019-04-20T16:48:13.977Z,100760
2019-04-20T16:50:15.004Z,100770
2019-04-20T16:52:14.828Z,100770
2019-04-20T16:54:13.953Z,100770
2019-04-20T16:56:16.116Z,100770
2019-04-20T16:58:13.430Z,100780
2019-04-20T17:00:13.707Z,100780
2019-04-20T17:02:15.940Z,100780
2019-04-20T17:06:13.792Z,100790
2019-04-20T17:08:13.243Z,100780
2019-04-20T17:10:13.769Z,100790
2019-04-20T17:12:12.151Z,100790
2019-04-20T17:14:13.172Z,100790
2019-04-20T17:16:11.768Z,100790
2019-04-20T17:18:11.853Z,100790
2019-04-20T17:22:11.722Z,100800
2019-04-20T17:24:11.274Z,100800
2019-04-20T17:26:11.900Z,100800
2019-04-20T17:28:11.401Z,100800
2019-04-20T17:30:10.797Z,100800
2019-04-20T17:32:11.740Z,100800
2019-04-20T17:34:28.360Z,100810
2019-04-20T17:36:18.572Z,100800
2019-04-20T17:38:10.849Z,100800
2019-04-20T17:40:31.145Z,100810
2019-04-20T17:42:25.164Z,100810
2019-04-20T17:46:23.736Z,100810
2019-04-20T17:50:24.045Z,100810
2019-04-20T17:52:28.072Z,100810
2019-04-20T17:54:10.423Z,100810
2019-04-20T17:56:10.106Z,100810
2019-04-20T17:58:13.761Z,100810
2019-04-20T18:00:15.173Z,100810
2019-04-20T18:02:20.447Z,100810
2019-04-20T18:04:41.805Z,100810
2019-04-20T18:06:30.381Z,100810
2019-04-20T18:08:28.461Z,100810
2019-04-20T18:10:26.415Z,100810
2019-04-20T18:12:14.169Z,100810
2019-04-20T18:14:28.520Z,100820
2019-04-20T18:16:30.192Z,100820
2019-04-20T18:20:07.204Z,100820
2019-04-20T18:22:07.697Z,100820
2019-04-20T18:24:14.163Z,100820
2019-04-20T18:26:30.095Z,100820
2019-04-20T18:28:18.532Z,100820
2019-04-20T18:30:24.125Z,100820
2019-04-20T18:32:05.586Z,100820
2019-04-20T18:34:09.181Z,100820
2019-04-20T18:36:05.836Z,100820
2019-04-20T18:38:09.731Z,100820
2019-04-20T18:40:11.098Z,100820
2019-04-20T18:42:14.301Z,100820
2019-04-20T18:44:04.572Z,100820
2019-04-20T18:46:21.728Z,100820
2019-04-20T18:48:24.478Z,100830
2019-04-20T18:50:15.024Z,100830
2019-04-20T18:52:04.208Z,100830
2019-04-20T18:54:11.466Z,100830
2019-04-20T18:56:05.797Z,100830
2019-04-20T18:58:03.030Z,100830
2019-04-20T19:00:07.892Z,100840
2019-04-20T19:02:06.713Z,100840
2019-04-20T19:04:03.769Z,100840
2019-04-20T19:06:02.308Z,100840
2019-04-20T19:08:06.784Z,100840
2019-04-20T19:10:13.866Z,100840
2019-04-20T19:12:04.640Z,100840
2019-04-20T19:14:10.276Z,100840
2019-04-20T19:16:15.458Z,100840
2019-04-20T19:18:11.519Z,100840
2019-04-20T19:20:03.563Z,100840
2019-04-20T19:22:01.787Z,100840
2019-04-20T19:24:07.616Z,100840
2019-04-20T19:26:05.485Z,100840
2019-04-20T19:28:01.494Z,100840
2019-04-20T19:30:16.884Z,100850
2019-04-20T19:32:17.926Z,100840
2019-04-20T19:34:22.746Z,100840
2019-04-20T19:36:15.081Z,100850
2019-04-20T19:38:09.343Z,100850
2019-04-20T19:40:12.655Z,100850
2019-04-20T19:42:12.210Z,100850
2019-04-20T19:44:09.963Z,100850
2019-04-20T19:46:37.900Z,100850
2019-04-20T19:48:12.247Z,100850
2019-04-20T19:50:26.792Z,100850
2019-04-20T19:52:27.198Z,100850
2019-04-20T19:54:17.941Z,100850
2019-04-20T19:56:09.942Z,100850
2019-04-20T19:58:13.382Z,100850
2019-04-20T19:59:58.667Z,100850
2019-04-20T20:01:57.897Z,100850
2019-04-20T20:04:00.256Z,100850
2019-04-20T20:05:57.799Z,100850
2019-04-20T20:08:03.757Z,100850
2019-04-20T20:10:00.574Z,100850
2019-04-20T20:12:02.916Z,100860
2019-04-20T20:13:57.096Z,100850
2019-04-20T20:16:02.438Z,100850
2019-04-20T20:18:15.766Z,100850
2019-04-20T20:20:23.003Z,100850
2019-04-20T20:22:05.618Z,100850
2019-04-20T20:23:54.236Z,100850
2019-04-20T20:25:54.854Z,100850
2019-04-20T20:27:59.478Z,100850
2019-04-20T20:30:04.708Z,100850
2019-04-20T20:32:05.086Z,100850
2019-04-20T20:34:02.958Z,100860
2019-04-20T20:36:02.225Z,100850
2019-04-20T20:40:03.907Z,100860
2019-04-20T20:42:01.539Z,100860
2019-04-20T20:44:02.636Z,100860
2019-04-20T20:46:09.115Z,100860
2019-04-20T20:48:09.189Z,100860
2019-04-20T20:50:13.025Z,100860
2019-04-20T20:52:12.329Z,100860
2019-04-20T20:54:03.473Z,100860
2019-04-20T20:56:04.421Z,100860
2019-04-20T20:57:59.227Z,100870
2019-04-20T20:59:57.401Z,100870
2019-04-20T21:02:00.946Z,100870
2019-04-20T21:03:53.006Z,100870
2019-04-20T21:05:49.741Z,100860
2019-04-20T21:07:51.319Z,100870
2019-04-20T21:09:50.454Z,100870
2019-04-20T21:11:52.060Z,100870
2019-04-20T21:13:50.983Z,100870
2019-04-20T21:15:57.601Z,100870
2019-04-20T21:20:07.365Z,100880
2019-04-20T21:21:57.100Z,100880
2019-04-20T21:23:56.012Z,100880
2019-04-20T21:25:50.452Z,100880
2019-04-20T21:27:48.675Z,100880
2019-04-20T21:29:51.426Z,100870
2019-04-20T21:31:55.539Z,100880
2019-04-20T21:33:47.108Z,100870
2019-04-20T21:35:50.169Z,100880
2019-04-20T21:37:51.230Z,100880
2019-04-20T21:39:54.182Z,100880
2019-04-20T21:41:51.274Z,100880
2019-04-20T21:43:46.457Z,100880
2019-04-20T21:45:54.871Z,100880
2019-04-20T21:47:47.027Z,100880
2019-04-20T21:49:55.393Z,100870
2019-04-20T21:51:52.005Z,100880
2019-04-20T21:53:44.542Z,100870
2019-04-20T21:55:46.008Z,100870
2019-04-20T21:57:50.152Z,100880
2019-04-20T21:59:48.792Z,100880
2019-04-20T22:01:56.413Z,100870
2019-04-20T22:03:44.760Z,100880
2019-04-20T22:05:44.272Z,100880
2019-04-20T22:07:44.285Z,100880
2019-04-20T22:09:46.763Z,100880
2019-04-20T22:11:44.189Z,100880
2019-04-20T22:13:44.569Z,100870
2019-04-20T22:15:51.924Z,100870
2019-04-20T22:17:42.746Z,100870
2019-04-20T22:19:52.701Z,100870
2019-04-20T22:21:53.381Z,100870
2019-04-20T22:24:01.868Z,100870
2019-04-20T22:25:55.239Z,100870
2019-04-20T22:31:46.126Z,100870
2019-04-20T22:33:42.773Z,100870
2019-04-20T22:35:44.271Z,100870
2019-04-20T22:39:46.664Z,100870
2019-04-20T22:41:40.686Z,100860
2019-04-20T22:43:40.336Z,100870
2019-04-20T22:45:45.692Z,100870
2019-04-20T22:47:40.700Z,100870
2019-04-20T22:49:51.494Z,100870
2019-04-20T22:51:49.568Z,100870
2019-04-20T22:53:49.825Z,100870
2019-04-20T22:56:01.482Z,100870
2019-04-20T22:57:56.593Z,100870
2019-04-20T22:59:49.415Z,100870
2019-04-20T23:01:45.784Z,100880
2019-04-20T23:03:38.798Z,100880
2019-04-20T23:05:38.503Z,100870
2019-04-20T23:07:37.329Z,100870
2019-04-20T23:11:37.607Z,100870
2019-04-20T23:13:41.260Z,100880
2019-04-20T23:15:36.312Z,100870
2019-04-20T23:17:39.938Z,100880
2019-04-20T23:19:43.825Z,100870
2019-04-20T23:21:40.128Z,100880
2019-04-20T23:25:36.528Z,100870
2019-04-20T23:27:37.320Z,100870
2019-04-20T23:29:38.349Z,100870
2019-04-20T23:31:34.685Z,100870
2019-04-20T23:33:34.337Z,100870
2019-04-20T23:35:37.634Z,100870
2019-04-20T23:37:37.007Z,100880
2019-04-20T23:39:37.350Z,100880
2019-04-20T23:41:33.521Z,100880
2019-04-20T23:43:35.942Z,100880
2019-04-20T23:45:38.741Z,100880
2019-04-20T23:47:34.064Z,100880
2019-04-20T23:49:53.595Z,100880
2019-04-20T23:51:52.610Z,100880
2019-04-20T23:53:45.505Z,100880
2019-04-20T23:57:33.596Z,100880
